Time;durP1;ratioP1;P1;durP2;ratioP2;P2;SDS_P1;SDS_P2;PMS_P1;PMS_P2;Temp;Humidity;BMP_temperature;BMP_pressure;BME280_temperature;BME280_humidity;BME280_pressure;Samples;Min_cycle;Max_cycle;Signal;HPM_P1;HPM_P2
2021/04/04 00:00:21;;;;;;;18.17;3.37;;;7.20;99.90;;;;;;5002477;28;20203;-81
2021/04/04 00:02:48;;;;;;;16.10;3.70;;;7.10;99.90;;;;;;5002765;28;20215;-81
2021/04/04 00:05:17;;;;;;;12.67;2.83;;;7.10;99.90;;;;;;5002114;28;20223;-82
2021/04/04 00:07:43;;;;;;;13.40;2.93;;;7.10;99.90;;;;;;5012965;28;20218;-80
2021/04/04 00:10:11;;;;;;;15.90;3.60;;;7.10;99.90;;;;;;5022796;28;20217;-81
2021/04/04 00:12:38;;;;;;;12.80;2.83;;;7.10;99.90;;;;;;5023181;28;20203;-83
2021/04/04 00:15:07;;;;;;;15.23;3.30;;;7.10;99.90;;;;;;5007888;28;20222;-82
2021/04/04 00:17:33;;;;;;;14.80;3.27;;;7.10;99.90;;;;;;5002894;28;20239;-81
2021/04/04 00:20:00;;;;;;;15.80;3.70;;;7.00;99.90;;;;;;5003338;28;20203;-80
2021/04/04 00:22:26;;;;;;;13.33;3.00;;;7.10;99.90;;;;;;5003779;28;20218;-81
2021/04/04 00:24:52;;;;;;;9.30;3.40;;;7.00;99.90;;;;;;5003265;28;20214;-82
2021/04/04 00:27:19;;;;;;;6.97;2.40;;;7.10;99.90;;;;;;5003431;28;20199;-79
2021/04/04 00:29:45;;;;;;;14.53;3.03;;;7.00;99.90;;;;;;5003661;28;20203;-81
2021/04/04 00:32:12;;;;;;;10.83;2.50;;;7.00;99.90;;;;;;5001987;28;20203;-79
2021/04/04 00:34:38;;;;;;;8.27;1.80;;;7.00;99.90;;;;;;5003211;28;20203;-80
2021/04/04 00:37:05;;;;;;;11.03;2.47;;;7.00;99.90;;;;;;5022119;23;20266;-82
2021/04/04 00:39:31;;;;;;;11.97;3.27;;;7.10;99.90;;;;;;5021305;28;20273;-79
2021/04/04 00:41:57;;;;;;;8.10;2.20;;;7.00;99.90;;;;;;5022384;28;20218;-82
2021/04/04 00:44:24;;;;;;;7.37;2.03;;;7.00;99.90;;;;;;5002663;28;20215;-80
2021/04/04 00:46:50;;;;;;;11.67;2.33;;;7.00;99.90;;;;;;5001507;28;20561;-81
2021/04/04 00:49:17;;;;;;;9.67;3.10;;;7.00;99.90;;;;;;5001414;28;20207;-81
2021/04/04 00:51:44;;;;;;;9.77;2.50;;;7.00;99.90;;;;;;5003304;28;20226;-79
2021/04/04 00:54:10;;;;;;;10.40;3.30;;;7.00;99.90;;;;;;5002587;28;20199;-81
2021/04/04 00:56:37;;;;;;;8.53;2.13;;;7.00;99.90;;;;;;5002216;28;20265;-81
2021/04/04 00:59:04;;;;;;;10.60;2.43;;;6.90;99.90;;;;;;5003026;28;20253;-81
2021/04/04 01:01:33;;;;;;;13.87;2.57;;;7.00;99.90;;;;;;5002248;28;20212;-80
2021/04/04 01:04:00;;;;;;;8.80;2.80;;;7.00;99.90;;;;;;5002464;28;20645;-81
2021/04/04 01:06:27;;;;;;;10.53;2.23;;;6.90;99.90;;;;;;5002862;28;20234;-81
2021/04/04 01:08:53;;;;;;;9.90;2.27;;;6.90;99.90;;;;;;5001755;28;20211;-81
2021/04/04 01:11:27;;;;;;;14.40;2.53;;;6.90;99.90;;;;;;5004219;28;20226;-81
2021/04/04 01:13:58;;;;;;;13.43;2.83;;;7.00;99.90;;;;;;5005672;28;20211;-82
2021/04/04 01:16:28;;;;;;;11.73;2.87;;;7.00;99.90;;;;;;5005813;28;20191;-81
2021/04/04 01:18:59;;;;;;;13.23;3.10;;;6.90;99.90;;;;;;5024263;28;20331;-80
2021/04/04 01:21:32;;;;;;;12.93;2.60;;;7.00;99.90;;;;;;5024220;28;20207;-80
2021/04/04 01:24:19;;;;;;;16.73;3.57;;;6.90;99.90;;;;;;5021112;28;20662;-80
2021/04/04 01:26:54;;;;;;;8.97;2.90;;;6.90;99.90;;;;;;5005318;28;20215;-81
2021/04/04 01:29:24;;;;;;;9.87;2.83;;;6.90;99.90;;;;;;5005236;28;20207;-81
2021/04/04 01:31:52;;;;;;;8.00;2.43;;;7.00;99.90;;;;;;5005841;28;20261;-82
2021/04/04 01:34:20;;;;;;;11.13;2.30;;;6.90;99.90;;;;;;5005052;28;20321;-81
2021/04/04 01:36:50;;;;;;;14.43;3.13;;;6.90;99.90;;;;;;4997198;28;20244;-80
2021/04/04 01:39:20;;;;;;;9.77;3.03;;;6.90;99.90;;;;;;4986972;28;20310;-81
2021/04/04 01:41:48;;;;;;;9.67;2.83;;;6.90;99.90;;;;;;4986101;28;20521;-82
2021/04/04 01:44:17;;;;;;;10.00;2.40;;;6.90;99.90;;;;;;4985464;28;20200;-82
2021/04/04 01:46:46;;;;;;;13.50;2.63;;;7.00;99.90;;;;;;4986463;28;20550;-82
2021/04/04 01:49:13;;;;;;;12.40;2.70;;;7.00;99.90;;;;;;4986211;28;20215;-81
2021/04/04 01:51:41;;;;;;;8.57;2.27;;;7.00;99.90;;;;;;4986665;28;20219;-80
2021/04/04 01:54:09;;;;;;;8.60;2.60;;;7.00;99.90;;;;;;4985879;28;20216;-81
2021/04/04 01:56:37;;;;;;;8.60;2.30;;;7.00;99.90;;;;;;4985844;28;20211;-83
2021/04/04 01:59:04;;;;;;;8.90;2.00;;;7.00;99.90;;;;;;4985904;28;20207;-80
2021/04/04 02:01:32;;;;;;;10.53;2.63;;;7.00;99.90;;;;;;4985989;28;20212;-80
2021/04/04 02:04:07;;;;;;;16.30;3.33;;;6.90;99.90;;;;;;4984421;28;20201;-80
2021/04/04 02:06:34;;;;;;;6.97;2.37;;;6.90;99.90;;;;;;4985275;28;20712;-79
2021/04/04 02:09:01;;;;;;;11.33;2.00;;;7.00;99.90;;;;;;5003428;28;20611;-81
2021/04/04 02:11:30;;;;;;;12.70;2.47;;;7.00;99.90;;;;;;4985366;28;20616;-81
2021/04/04 02:13:58;;;;;;;10.37;2.30;;;7.00;99.90;;;;;;4985635;28;20196;-80
2021/04/04 02:16:27;;;;;;;14.90;3.20;;;6.90;99.90;;;;;;4985232;28;20204;-80
2021/04/04 02:18:54;;;;;;;10.37;2.30;;;7.00;99.90;;;;;;4983690;28;20216;-80
2021/04/04 02:21:23;;;;;;;10.37;2.77;;;7.00;99.90;;;;;;4984467;28;20196;-81
2021/04/04 02:23:50;;;;;;;8.43;1.90;;;6.90;99.90;;;;;;4982547;28;20211;-80
2021/04/04 02:26:16;;;;;;;11.27;1.90;;;6.90;99.90;;;;;;4985076;28;20224;-81
2021/04/04 02:28:42;;;;;;;8.00;1.90;;;6.80;99.90;;;;;;4984188;28;20216;-81
2021/04/04 02:31:12;;;;;;;10.77;2.60;;;6.80;99.90;;;;;;4983466;28;20262;-80
2021/04/04 02:33:48;;;;;;;6.93;2.13;;;6.90;99.90;;;;;;4983852;28;20522;-81
2021/04/04 02:36:15;;;;;;;7.53;2.13;;;6.90;99.90;;;;;;4984335;28;20239;-79
2021/04/04 02:38:46;;;;;;;8.63;3.00;;;6.90;99.90;;;;;;4984761;28;20208;-80
2021/04/04 02:41:14;;;;;;;10.13;2.10;;;6.80;99.90;;;;;;4984653;28;20200;-81
2021/04/04 02:43:42;;;;;;;14.90;2.83;;;6.80;99.90;;;;;;4984609;28;20196;-80
2021/04/04 02:46:12;;;;;;;9.97;2.30;;;6.80;99.90;;;;;;4983803;28;20224;-80
2021/04/04 02:48:43;;;;;;;9.20;2.30;;;6.80;99.90;;;;;;4984319;28;20200;-79
2021/04/04 02:51:13;;;;;;;14.30;2.20;;;6.80;99.90;;;;;;4984334;28;20215;-80
2021/04/04 02:53:45;;;;;;;8.60;2.17;;;6.80;99.90;;;;;;4997827;28;20203;-79
2021/04/04 02:56:15;;;;;;;10.90;3.30;;;6.90;99.90;;;;;;5003789;28;20199;-81
2021/04/04 02:58:44;;;;;;;8.43;2.57;;;6.90;99.90;;;;;;4992830;28;20239;-81
2021/04/04 03:01:12;;;;;;;5.97;1.57;;;6.80;99.90;;;;;;4983015;28;20204;-81
2021/04/04 03:03:40;;;;;;;7.40;1.80;;;6.80;99.90;;;;;;4983163;28;20208;-81
2021/04/04 03:06:10;;;;;;;6.10;2.00;;;6.80;99.90;;;;;;4983428;28;20247;-80
2021/04/04 03:08:39;;;;;;;4.20;1.47;;;6.80;99.90;;;;;;5001497;28;20218;-80
2021/04/04 03:11:08;;;;;;;6.07;1.50;;;6.80;99.90;;;;;;5003734;28;20583;-81
2021/04/04 03:13:35;;;;;;;10.87;2.47;;;6.80;99.90;;;;;;5004374;28;20579;-81
2021/04/04 03:16:04;;;;;;;7.63;1.50;;;6.80;99.90;;;;;;5003859;28;20235;-80
2021/04/04 03:18:32;;;;;;;11.00;1.60;;;6.70;99.90;;;;;;4993736;28;20208;-81
2021/04/04 03:21:01;;;;;;;6.93;1.50;;;6.60;99.90;;;;;;4983215;28;20205;-82
2021/04/04 03:23:29;;;;;;;4.63;1.37;;;6.60;99.90;;;;;;4983606;28;20203;-81
2021/04/04 03:25:56;;;;;;;7.93;1.80;;;6.70;99.90;;;;;;4983463;28;20232;-80
2021/04/04 03:28:24;;;;;;;4.33;1.50;;;6.60;99.90;;;;;;4983989;28;20212;-80
2021/04/04 03:30:52;;;;;;;7.07;1.90;;;6.60;99.90;;;;;;4985486;28;20208;-81
2021/04/04 03:33:20;;;;;;;4.03;1.20;;;6.60;99.90;;;;;;4984192;28;20298;-81
2021/04/04 03:35:49;;;;;;;4.20;1.60;;;6.60;99.90;;;;;;5003510;28;20214;-81
2021/04/04 03:38:17;;;;;;;5.07;1.70;;;6.60;99.90;;;;;;5002750;28;20215;-80
2021/04/04 03:40:44;;;;;;;5.17;1.50;;;6.50;99.90;;;;;;4992036;28;20235;-82
2021/04/04 03:43:14;;;;;;;5.27;1.30;;;6.60;99.90;;;;;;4983553;28;20208;-81
2021/04/04 03:45:41;;;;;;;3.20;1.10;;;6.50;99.90;;;;;;4984077;28;20235;-81
2021/04/04 03:48:09;;;;;;;4.77;1.50;;;6.50;99.90;;;;;;4983570;28;20254;-81
2021/04/04 03:50:37;;;;;;;5.90;1.57;;;6.50;99.90;;;;;;4983601;28;20211;-81
2021/04/04 03:53:05;;;;;;;7.07;1.67;;;6.60;99.90;;;;;;4983730;28;20211;-80
2021/04/04 03:55:33;;;;;;;3.77;1.53;;;6.60;99.90;;;;;;4983333;28;20199;-82
2021/04/04 03:58:00;;;;;;;6.70;2.07;;;6.60;99.90;;;;;;4983922;28;20215;-81
2021/04/04 04:00:30;;;;;;;4.30;2.00;;;6.50;99.90;;;;;;4983571;28;20204;-82
2021/04/04 04:02:58;;;;;;;6.60;2.20;;;6.50;99.90;;;;;;4983978;28;20748;-82
2021/04/04 04:05:25;;;;;;;5.20;2.10;;;6.50;99.90;;;;;;4983785;28;20247;-82
2021/04/04 04:07:54;;;;;;;5.57;1.83;;;6.50;99.90;;;;;;4984410;28;20211;-81
2021/04/04 04:10:22;;;;;;;5.17;2.20;;;6.50;99.90;;;;;;4983160;28;20234;-82
2021/04/04 04:12:50;;;;;;;9.87;2.90;;;6.50;99.90;;;;;;4983935;28;20223;-81
2021/04/04 04:15:18;;;;;;;4.30;2.10;;;6.60;99.90;;;;;;4983606;28;20235;-81
2021/04/04 04:17:47;;;;;;;7.57;3.00;;;6.50;99.90;;;;;;4983997;28;20217;-81
2021/04/04 04:20:15;;;;;;;8.73;2.73;;;6.60;99.90;;;;;;4982742;28;20215;-81
2021/04/04 04:22:42;;;;;;;8.40;3.07;;;6.50;99.90;;;;;;4983454;28;20200;-81
2021/04/04 04:25:11;;;;;;;14.30;3.63;;;6.60;99.90;;;;;;4982432;28;20575;-80
2021/04/04 04:27:38;;;;;;;8.80;3.23;;;6.50;99.90;;;;;;4983351;28;20271;-81
2021/04/04 04:30:06;;;;;;;11.20;3.90;;;6.60;99.90;;;;;;4982846;28;20211;-82
2021/04/04 04:32:35;;;;;;;9.53;3.27;;;6.60;99.90;;;;;;4980751;28;20223;-82
2021/04/04 04:35:03;;;;;;;8.07;3.10;;;6.60;99.90;;;;;;4981966;28;20240;-82
2021/04/04 04:37:32;;;;;;;9.40;3.53;;;6.60;99.90;;;;;;4981820;28;20524;-81
2021/04/04 04:39:59;;;;;;;7.40;3.00;;;6.60;99.90;;;;;;4982945;28;20216;-80
2021/04/04 04:42:27;;;;;;;7.87;4.30;;;6.60;99.90;;;;;;4984276;28;20211;-81
2021/04/04 04:44:54;;;;;;;8.03;3.10;;;6.50;99.90;;;;;;4985495;28;20211;-81
2021/04/04 04:47:21;;;;;;;8.97;3.37;;;6.50;99.90;;;;;;4990379;28;20219;-81
2021/04/04 04:49:47;;;;;;;9.07;3.17;;;6.50;99.90;;;;;;4990370;28;20484;-80
2021/04/04 04:52:14;;;;;;;8.97;3.03;;;6.50;99.90;;;;;;4989682;28;20211;-80
2021/04/04 04:54:42;;;;;;;9.50;3.47;;;6.60;99.90;;;;;;4988473;28;20231;-81
2021/04/04 04:57:10;;;;;;;10.13;3.63;;;6.60;99.90;;;;;;4987503;28;20519;-81
2021/04/04 04:59:36;;;;;;;9.10;3.10;;;6.60;99.90;;;;;;4987152;28;20203;-83
2021/04/04 05:02:04;;;;;;;7.67;3.10;;;6.70;99.90;;;;;;4987530;28;20339;-81
2021/04/04 05:04:31;;;;;;;8.03;2.73;;;6.70;99.90;;;;;;4987774;28;20200;-81
2021/04/04 05:06:58;;;;;;;8.30;2.67;;;6.60;99.90;;;;;;4986589;28;20219;-81
2021/04/04 05:09:26;;;;;;;9.67;3.40;;;6.60;99.90;;;;;;4987369;28;20196;-82
2021/04/04 05:11:54;;;;;;;8.83;3.00;;;6.60;99.90;;;;;;5004840;28;20320;-81
2021/04/04 05:14:20;;;;;;;6.43;2.70;;;6.60;99.90;;;;;;5006162;28;20207;-81
2021/04/04 05:16:48;;;;;;;7.70;3.50;;;6.60;99.90;;;;;;5006534;28;20200;-81
2021/04/04 05:19:14;;;;;;;6.17;2.57;;;6.60;99.90;;;;;;5007121;28;20207;-82
2021/04/04 05:21:43;;;;;;;9.10;2.97;;;6.50;99.90;;;;;;5005899;28;20935;-81
2021/04/04 05:24:11;;;;;;;9.13;3.97;;;6.50;99.90;;;;;;4986172;28;20231;-81
2021/04/04 05:26:39;;;;;;;7.17;2.80;;;6.50;99.90;;;;;;4985743;28;20235;-80
2021/04/04 05:29:09;;;;;;;9.23;2.93;;;6.60;99.90;;;;;;4986686;28;20347;-81
2021/04/04 05:31:44;;;;;;;8.87;2.63;;;6.50;99.90;;;;;;4986207;28;20223;-81
2021/04/04 05:34:12;;;;;;;12.53;3.07;;;6.60;99.90;;;;;;4985858;28;20211;-80
2021/04/04 05:36:50;;;;;;;6.53;2.73;;;6.50;99.90;;;;;;4985096;28;20314;-81
2021/04/04 05:39:18;;;;;;;7.00;2.70;;;6.60;99.90;;;;;;4985430;28;20207;-81
2021/04/04 05:41:48;;;;;;;7.63;3.30;;;6.50;99.90;;;;;;4987371;28;20204;-79
2021/04/04 05:44:18;;;;;;;7.03;2.63;;;6.50;99.90;;;;;;4986542;28;20196;-80
2021/04/04 05:46:52;;;;;;;12.63;3.47;;;6.50;99.90;;;;;;4987094;28;20311;-82
2021/04/04 05:49:29;;;;;;;7.57;3.00;;;6.60;99.90;;;;;;4985807;28;20226;-81
2021/04/04 05:52:02;;;;;;;8.13;2.90;;;6.60;99.90;;;;;;4985662;28;20227;-81
2021/04/04 05:54:55;;;;;;;10.37;3.53;;;6.50;99.90;;;;;;4986528;28;20512;-82
2021/04/04 05:57:27;;;;;;;6.73;2.70;;;6.50;99.90;;;;;;4986537;28;20239;-82
2021/04/04 06:00:01;;;;;;;7.20;2.90;;;6.50;99.90;;;;;;4986222;28;20643;-81
2021/04/04 06:03:13;;;;;;;8.73;2.80;;;6.50;99.90;;;;;;4986677;28;20228;-82
2021/04/04 06:06:21;;;;;;;11.73;3.57;;;6.60;99.90;;;;;;4986393;28;20216;-81
2021/04/04 06:09:14;;;;;;;9.50;3.30;;;6.60;99.90;;;;;;5005737;28;20211;-83
2021/04/04 06:11:57;;;;;;;9.60;3.27;;;6.60;99.90;;;;;;5006711;28;20243;-81
2021/04/04 06:14:29;;;;;;;9.67;4.17;;;6.60;99.90;;;;;;5005369;28;20219;-81
2021/04/04 06:17:02;;;;;;;5.70;3.17;;;6.60;99.90;;;;;;4986411;28;20196;-82
2021/04/04 06:19:36;;;;;;;9.53;3.17;;;6.60;99.90;;;;;;4986235;28;20202;-82
2021/04/04 06:22:09;;;;;;;8.97;3.53;;;6.60;99.90;;;;;;4986805;28;20386;-81
2021/04/04 06:24:44;;;;;;;9.60;3.90;;;6.70;99.90;;;;;;4985620;28;20920;-80
2021/04/04 06:27:19;;;;;;;9.63;4.50;;;6.70;99.90;;;;;;4986376;28;20231;-81
2021/04/04 06:30:21;;;;;;;7.27;4.10;;;6.70;99.90;;;;;;4989249;28;20203;-82
2021/04/04 06:33:00;;;;;;;8.27;3.87;;;6.70;99.90;;;;;;4992322;28;20223;-83
2021/04/04 06:35:37;;;;;;;11.07;3.40;;;6.70;99.90;;;;;;4985787;28;20219;-83
2021/04/04 06:38:24;;;;;;;7.03;3.20;;;6.70;99.90;;;;;;4987000;28;20323;-82
2021/04/04 06:41:00;;;;;;;7.90;4.33;;;6.80;99.90;;;;;;4988550;28;20852;-82
2021/04/04 06:43:36;;;;;;;9.67;4.37;;;6.80;99.90;;;;;;4987210;28;20207;-81
2021/04/04 06:46:14;;;;;;;8.50;3.80;;;6.80;99.90;;;;;;4986144;28;20227;-82
2021/04/04 06:48:55;;;;;;;9.47;3.90;;;6.80;99.90;;;;;;4986871;28;20215;-81
2021/04/04 06:51:31;;;;;;;7.30;4.33;;;6.80;99.90;;;;;;4987032;28;20536;-82
2021/04/04 06:54:18;;;;;;;11.23;4.93;;;6.90;99.90;;;;;;4980265;28;20863;-83
2021/04/04 06:57:05;;;;;;;10.60;4.33;;;6.90;99.90;;;;;;4985813;28;20223;-81
2021/04/04 07:03:00;;;;;;;11.33;4.50;;;7.10;99.90;;;;;;4982840;28;21010;-82
2021/04/04 07:05:30;;;;;;;8.80;4.53;;;7.00;99.90;;;;;;4985135;28;20603;-81
2021/04/04 07:08:04;;;;;;;6.80;3.80;;;7.00;99.90;;;;;;4986040;28;20662;-81
2021/04/04 07:10:50;;;;;;;11.67;5.43;;;7.10;99.90;;;;;;4984365;28;20215;-80
2021/04/04 07:13:35;;;;;;;13.03;5.13;;;7.20;99.90;;;;;;4985438;28;20209;-82
2021/04/04 07:20:03;;;;;;;7.20;4.73;;;7.20;99.90;;;;;;4886123;28;20289;-81
2021/04/04 07:22:45;;;;;;;13.33;5.60;;;7.20;99.90;;;;;;4987903;28;20214;-81
2021/04/04 07:25:26;;;;;;;8.37;4.40;;;7.30;99.90;;;;;;4986648;28;20204;-83
2021/04/04 07:28:20;;;;;;;11.03;4.63;;;7.40;99.90;;;;;;4986017;28;20266;-82
2021/04/04 07:30:53;;;;;;;7.63;4.13;;;7.40;99.90;;;;;;4983715;28;20208;-81
2021/04/04 07:33:35;;;;;;;8.17;4.50;;;7.30;99.90;;;;;;4985426;28;20604;-82
2021/04/04 07:36:10;;;;;;;9.80;4.13;;;7.40;99.90;;;;;;4985631;28;20202;-82
2021/04/04 07:38:46;;;;;;;9.50;4.50;;;7.40;99.90;;;;;;4986413;28;20212;-82
2021/04/04 07:41:21;;;;;;;8.73;4.30;;;7.40;99.90;;;;;;4985301;28;20258;-82
2021/04/04 07:43:57;;;;;;;14.30;5.53;;;7.50;99.90;;;;;;4986464;28;20782;-82
2021/04/04 07:46:30;;;;;;;9.53;4.47;;;7.60;99.90;;;;;;4985590;28;20281;-82
2021/04/04 07:49:18;;;;;;;12.57;4.80;;;7.60;99.90;;;;;;4984261;28;20200;-83
2021/04/04 07:51:49;;;;;;;8.53;4.57;;;7.70;99.90;;;;;;4985768;28;20362;-81
2021/04/04 07:54:28;;;;;;;14.10;5.83;;;7.70;99.90;;;;;;4985825;28;20208;-81
2021/04/04 07:56:58;;;;;;;8.40;4.60;;;7.80;99.90;;;;;;4986301;28;20200;-81
2021/04/04 07:59:29;;;;;;;8.33;4.03;;;7.80;99.90;;;;;;4986626;28;20200;-81
2021/04/04 08:02:03;;;;;;;8.37;5.10;;;7.80;99.90;;;;;;4985409;28;20215;-81
2021/04/04 08:04:38;;;;;;;11.83;5.93;;;7.80;99.90;;;;;;4985792;28;20195;-81
2021/04/04 08:07:13;;;;;;;8.60;4.43;;;7.90;99.90;;;;;;4985450;28;20234;-82
2021/04/04 08:09:48;;;;;;;9.57;4.57;;;7.90;99.90;;;;;;4984718;28;20230;-79
2021/04/04 08:12:26;;;;;;;9.63;4.30;;;8.00;99.90;;;;;;4996636;28;20621;-82
2021/04/04 08:14:58;;;;;;;11.37;4.00;;;8.00;99.90;;;;;;5004891;28;20195;-81
2021/04/04 08:17:25;;;;;;;13.63;4.53;;;8.10;99.90;;;;;;5005098;28;20790;-81
2021/04/04 08:19:58;;;;;;;11.97;4.50;;;8.10;99.90;;;;;;4979548;28;20212;-81
2021/04/04 08:22:30;;;;;;;9.93;5.43;;;8.10;99.90;;;;;;4989535;28;20196;-81
2021/04/04 08:25:02;;;;;;;9.13;4.90;;;8.10;99.90;;;;;;4988703;28;20207;-81
2021/04/04 08:27:32;;;;;;;7.07;3.87;;;8.10;99.90;;;;;;4988585;28;20216;-81
2021/04/04 08:30:03;;;;;;;9.73;4.10;;;8.30;99.90;;;;;;4990564;28;20831;-81
2021/04/04 08:32:37;;;;;;;13.93;3.93;;;8.30;99.90;;;;;;5002432;28;20309;-79
2021/04/04 08:35:07;;;;;;;8.27;4.00;;;8.30;99.90;;;;;;4990605;28;20231;-82
2021/04/04 08:37:38;;;;;;;9.33;4.00;;;8.30;99.90;;;;;;4989854;28;20309;-81
2021/04/04 08:40:19;;;;;;;6.50;4.23;;;8.30;99.90;;;;;;4988324;28;20216;-81
2021/04/04 08:42:48;;;;;;;7.53;4.30;;;8.40;99.90;;;;;;4988874;28;20207;-80
2021/04/04 08:45:20;;;;;;;6.97;3.93;;;8.50;99.90;;;;;;4987437;28;20211;-83
2021/04/04 08:47:48;;;;;;;10.27;4.70;;;8.50;99.90;;;;;;4988003;28;20666;-82
2021/04/04 08:50:17;;;;;;;10.27;4.37;;;8.50;99.90;;;;;;4987911;28;20686;-82
2021/04/04 08:52:48;;;;;;;8.07;4.47;;;8.60;99.90;;;;;;4987931;28;20207;-81
2021/04/04 08:55:21;;;;;;;13.70;4.27;;;8.60;99.90;;;;;;4987235;28;20208;-83
2021/04/04 08:57:49;;;;;;;8.27;3.77;;;8.70;99.90;;;;;;4988783;28;20211;-83
2021/04/04 09:00:16;;;;;;;8.67;3.70;;;8.70;99.90;;;;;;4988865;28;20495;-82
2021/04/04 09:02:46;;;;;;;10.97;4.73;;;8.80;99.90;;;;;;4989071;28;20608;-81
2021/04/04 09:05:13;;;;;;;8.53;3.73;;;8.80;99.90;;;;;;4990060;28;20200;-83
2021/04/04 09:07:42;;;;;;;10.10;4.47;;;8.90;99.90;;;;;;4998904;28;20223;-81
2021/04/04 09:10:11;;;;;;;7.00;3.53;;;8.90;99.90;;;;;;5005281;28;20211;-84
2021/04/04 09:12:39;;;;;;;9.20;3.90;;;8.90;99.90;;;;;;4987466;28;20215;-83
2021/04/04 09:15:07;;;;;;;11.10;3.97;;;8.90;99.90;;;;;;4987109;28;20219;-84
2021/04/04 09:17:33;;;;;;;7.10;3.37;;;8.80;99.90;;;;;;4987136;28;20596;-81
2021/04/04 09:20:04;;;;;;;8.07;3.93;;;8.80;99.90;;;;;;4985161;28;20212;-84
2021/04/04 09:22:32;;;;;;;6.97;3.60;;;8.90;99.90;;;;;;4986714;28;20207;-80
2021/04/04 09:25:02;;;;;;;6.43;3.27;;;8.90;99.90;;;;;;4986850;28;20208;-81
2021/04/04 09:27:34;;;;;;;9.70;3.57;;;9.00;99.90;;;;;;4986835;28;20227;-80
2021/04/04 09:30:02;;;;;;;11.20;3.33;;;9.00;99.90;;;;;;4986246;28;20188;-80
2021/04/04 09:32:34;;;;;;;9.53;4.40;;;9.00;99.90;;;;;;4986201;28;20266;-81
2021/04/04 09:35:02;;;;;;;7.73;3.97;;;9.10;99.90;;;;;;4987660;28;20219;-81
2021/04/04 09:37:30;;;;;;;8.17;4.13;;;9.10;99.90;;;;;;4992349;28;20238;-80
2021/04/04 09:39:58;;;;;;;6.93;4.07;;;9.20;99.90;;;;;;5004961;28;20210;-79
2021/04/04 09:42:29;;;;;;;9.20;3.83;;;9.30;99.90;;;;;;5007116;28;20208;-82
2021/04/04 09:45:13;;;;;;;8.00;4.07;;;9.30;99.90;;;;;;5000876;28;20204;-82
2021/04/04 09:47:40;;;;;;;10.50;3.90;;;9.30;99.90;;;;;;4991121;28;20216;-85
2021/04/04 09:50:21;;;;;;;8.97;4.13;;;9.30;99.90;;;;;;4993264;28;20235;-83
2021/04/04 09:52:48;;;;;;;8.77;3.53;;;9.40;99.90;;;;;;5010399;28;20207;-84
2021/04/04 09:55:17;;;;;;;20.67;5.23;;;9.30;99.90;;;;;;5008694;28;20207;-83
2021/04/04 09:57:44;;;;;;;6.97;4.10;;;9.30;99.90;;;;;;5007589;28;20311;-83
2021/04/04 10:00:21;;;;;;;12.60;6.20;;;9.30;99.90;;;;;;4990312;28;20212;-84
2021/04/04 10:02:49;;;;;;;14.07;7.53;;;9.40;99.90;;;;;;4989608;28;20204;-82
2021/04/04 10:05:36;;;;;;;11.87;5.17;;;9.40;99.90;;;;;;4990003;28;20561;-84
2021/04/04 10:08:08;;;;;;;9.30;4.07;;;9.40;99.90;;;;;;4989019;28;20298;-83
2021/04/04 10:10:34;;;;;;;10.97;4.53;;;9.50;99.90;;;;;;4988031;28;20567;-84
2021/04/04 10:13:01;;;;;;;8.33;4.23;;;9.60;99.90;;;;;;4988929;28;20849;-80
2021/04/04 10:15:28;;;;;;;5.60;3.77;;;9.70;99.90;;;;;;4988716;28;20208;-79
2021/04/04 10:17:56;;;;;;;10.10;4.63;;;9.80;99.90;;;;;;4988839;28;20765;-82
2021/04/04 10:20:37;;;;;;;10.87;4.50;;;9.80;99.90;;;;;;4989210;28;20269;-80
2021/04/04 10:23:06;;;;;;;9.13;3.70;;;9.90;99.90;;;;;;4987571;28;20299;-79
2021/04/04 10:25:33;;;;;;;10.30;4.57;;;10.00;99.90;;;;;;4987943;28;20222;-82
2021/04/04 10:28:01;;;;;;;6.80;4.07;;;10.00;99.90;;;;;;4990410;28;20235;-85
2021/04/04 10:30:31;;;;;;;9.63;4.00;;;10.10;99.90;;;;;;4990645;28;20259;-82
2021/04/04 10:33:18;;;;;;;6.87;3.73;;;10.20;99.90;;;;;;4990486;28;20208;-86
2021/04/04 10:35:45;;;;;;;7.60;4.23;;;10.20;99.90;;;;;;4990636;28;20592;-83
2021/04/04 10:38:13;;;;;;;9.87;4.33;;;10.30;99.90;;;;;;4986353;28;20678;-80
2021/04/04 10:40:41;;;;;;;7.97;3.93;;;10.30;99.90;;;;;;4983801;28;20793;-79
2021/04/04 10:43:08;;;;;;;8.37;4.90;;;10.30;99.90;;;;;;4983182;28;20196;-81
2021/04/04 10:45:35;;;;;;;10.53;4.33;;;10.30;99.90;;;;;;4983151;28;20917;-79
2021/04/04 10:48:06;;;;;;;6.30;3.77;;;10.40;99.90;;;;;;4983869;28;20249;-80
2021/04/04 10:50:33;;;;;;;11.23;4.90;;;10.50;99.90;;;;;;4982938;28;20216;-79
2021/04/04 10:53:01;;;;;;;10.43;3.60;;;10.50;99.90;;;;;;4983857;28;20211;-80
2021/04/04 10:55:27;;;;;;;8.53;4.00;;;10.50;99.90;;;;;;4983987;28;20215;-79
2021/04/04 10:57:54;;;;;;;9.53;3.73;;;10.40;99.90;;;;;;4983039;28;20208;-80
2021/04/04 11:00:22;;;;;;;6.87;4.10;;;10.40;99.90;;;;;;4983599;28;20604;-80
2021/04/04 11:02:50;;;;;;;6.87;3.87;;;10.40;99.90;;;;;;4985423;28;20207;-82
2021/04/04 11:05:18;;;;;;;8.27;3.97;;;10.50;99.90;;;;;;4984036;28;20246;-81
2021/04/04 11:07:44;;;;;;;9.80;3.90;;;10.40;99.90;;;;;;4995709;28;20226;-80
2021/04/04 11:10:11;;;;;;;8.97;4.37;;;10.50;99.90;;;;;;5004357;28;20207;-82
2021/04/04 11:12:39;;;;;;;7.20;4.10;;;10.50;99.90;;;;;;5004555;28;20243;-81
2021/04/04 11:15:09;;;;;;;7.07;3.97;;;10.50;99.90;;;;;;4988347;28;20295;-81
2021/04/04 11:17:37;;;;;;;6.87;4.20;;;10.60;99.90;;;;;;4984896;28;20270;-81
2021/04/04 11:20:07;;;;;;;8.17;4.10;;;10.70;99.90;;;;;;4984984;28;20211;-80
2021/04/04 11:22:33;;;;;;;8.23;3.77;;;10.70;99.90;;;;;;4997744;28;20809;-81
2021/04/04 11:25:02;;;;;;;8.43;3.73;;;10.80;99.90;;;;;;5002279;28;20207;-80
2021/04/04 11:27:37;;;;;;;8.73;3.83;;;10.80;99.90;;;;;;4984939;28;20220;-79
2021/04/04 11:30:04;;;;;;;6.70;3.27;;;10.80;99.90;;;;;;4983612;28;20211;-81
2021/04/04 11:32:31;;;;;;;7.20;4.60;;;10.70;99.90;;;;;;4982239;28;20199;-81
2021/04/04 11:34:59;;;;;;;8.23;3.50;;;10.70;99.90;;;;;;4983374;28;20343;-80
2021/04/04 11:37:38;;;;;;;8.20;3.80;;;10.80;99.90;;;;;;4983060;28;20495;-81
2021/04/04 11:40:16;;;;;;;10.53;4.47;;;10.80;99.90;;;;;;4982758;28;20199;-81
2021/04/04 11:42:43;;;;;;;8.30;4.63;;;10.80;99.90;;;;;;4983924;28;20222;-78
2021/04/04 11:45:11;;;;;;;8.73;4.07;;;10.80;99.90;;;;;;5000841;28;20215;-80
2021/04/04 11:47:37;;;;;;;7.30;4.23;;;10.80;99.90;;;;;;5002477;28;20238;-80
2021/04/04 11:50:23;;;;;;;5.43;3.83;;;10.90;99.90;;;;;;5003137;28;20270;-81
2021/04/04 11:52:50;;;;;;;8.43;3.57;;;10.80;99.90;;;;;;4985041;28;20215;-81
2021/04/04 11:55:19;;;;;;;9.30;4.20;;;10.80;99.90;;;;;;4983217;28;20204;-80
2021/04/04 11:57:47;;;;;;;5.73;4.20;;;10.80;99.90;;;;;;4984539;28;20522;-82
2021/04/04 12:00:20;;;;;;;9.30;4.30;;;10.80;99.90;;;;;;4984337;28;20224;-81
2021/04/04 12:02:51;;;;;;;5.50;3.33;;;10.80;99.90;;;;;;4991003;28;20215;-81
2021/04/04 12:05:18;;;;;;;8.20;4.03;;;10.80;99.90;;;;;;5004191;28;20230;-82
2021/04/04 12:07:46;;;;;;;6.77;3.97;;;10.80;99.90;;;;;;5005311;28;20230;-81
2021/04/04 12:10:16;;;;;;;10.43;6.63;;;11.00;99.90;;;;;;5004621;28;20238;-81
2021/04/04 12:12:43;;;;;;;9.97;3.83;;;11.00;99.90;;;;;;5002667;28;20950;-82
2021/04/04 12:15:11;;;;;;;9.13;3.50;;;10.90;99.90;;;;;;5002457;28;20203;-81
2021/04/04 12:17:38;;;;;;;8.70;3.60;;;10.80;99.90;;;;;;4984018;28;20266;-80
2021/04/04 12:20:08;;;;;;;8.70;3.77;;;10.90;99.90;;;;;;4985225;28;20199;-84
2021/04/04 12:22:40;;;;;;;10.00;3.60;;;10.90;99.90;;;;;;4984836;28;20208;-82
2021/04/04 12:25:09;;;;;;;9.20;6.07;;;11.00;99.90;;;;;;4982457;28;20206;-82
2021/04/04 12:27:38;;;;;;;6.60;4.20;;;11.00;99.90;;;;;;4982509;28;20282;-79
2021/04/04 12:30:06;;;;;;;10.07;6.27;;;11.00;99.90;;;;;;4981876;28;20262;-79
2021/04/04 12:32:34;;;;;;;9.23;5.07;;;11.00;99.90;;;;;;4982375;28;20215;-79
2021/04/04 12:35:03;;;;;;;10.13;6.03;;;10.90;99.90;;;;;;4982455;28;20208;-80
2021/04/04 12:37:31;;;;;;;7.27;4.00;;;10.80;99.90;;;;;;4981385;28;20285;-78
2021/04/04 12:39:59;;;;;;;7.23;3.97;;;10.80;99.90;;;;;;4982276;28;20223;-81
2021/04/04 12:42:28;;;;;;;9.30;3.77;;;10.80;99.90;;;;;;4982129;28;20258;-79
2021/04/04 12:44:55;;;;;;;7.17;3.80;;;10.80;99.90;;;;;;4981983;28;20208;-80
2021/04/04 12:47:24;;;;;;;7.87;4.57;;;10.90;99.90;;;;;;4981923;28;20250;-78
2021/04/04 12:49:56;;;;;;;7.63;4.10;;;11.00;99.90;;;;;;4982436;28;20215;-78
2021/04/04 12:52:37;;;;;;;9.03;3.87;;;11.00;99.90;;;;;;4982505;28;20204;-79
2021/04/04 12:55:16;;;;;;;9.37;4.23;;;11.10;99.90;;;;;;4981583;28;20211;-79
2021/04/04 12:57:43;;;;;;;8.07;3.87;;;11.10;99.90;;;;;;4981658;28;20191;-78
2021/04/04 13:00:21;;;;;;;7.20;3.60;;;11.10;99.90;;;;;;4981078;28;20208;-79
2021/04/04 13:02:55;;;;;;;7.67;4.27;;;11.00;99.90;;;;;;4982687;28;20204;-80
2021/04/04 13:05:22;;;;;;;6.23;4.07;;;10.80;99.90;;;;;;4980737;28;20560;-80
2021/04/04 13:07:48;;;;;;;8.93;4.10;;;10.70;99.90;;;;;;4994533;28;20242;-81
2021/04/04 13:10:15;;;;;;;9.70;3.63;;;10.60;99.90;;;;;;5003762;28;20239;-80
2021/04/04 13:12:42;;;;;;;7.40;3.10;;;10.70;99.90;;;;;;5004693;28;20322;-81
2021/04/04 13:15:19;;;;;;;5.47;3.40;;;10.80;99.90;;;;;;5008335;28;20203;-84
2021/04/04 13:17:46;;;;;;;8.93;4.03;;;10.80;99.90;;;;;;4991422;28;20203;-83